sensor_id;sensor_type;location;lat;lon;timestamp;P1;durP1;ratioP1;P2;durP2;ratioP2
14486;SDS011;7329;50.866;4.366;2022-12-01T00:01:18;11.68;;;10.48;;
14486;SDS011;7329;50.866;4.366;2022-12-01T00:03:21;12.20;;;10.82;;
14486;SDS011;7329;50.866;4.366;2022-12-01T00:05:24;11.65;;;10.25;;
14486;SDS011;7329;50.866;4.366;2022-12-01T00:07:26;11.95;;;10.25;;
14486;SDS011;7329;50.866;4.366;2022-12-01T00:09:28;11.93;;;10.27;;
14486;SDS011;7329;50.866;4.366;2022-12-01T00:11:48;11.73;;;10.52;;
14486;SDS011;7329;50.866;4.366;2022-12-01T00:13:52;11.75;;;10.52;;
14486;SDS011;7329;50.866;4.366;2022-12-01T00:15:54;10.15;;;9.05;;
14486;SDS011;7329;50.866;4.366;2022-12-01T00:17:57;12.20;;;10.60;;
14486;SDS011;7329;50.866;4.366;2022-12-01T00:19:59;11.40;;;10.20;;
14486;SDS011;7329;50.866;4.366;2022-12-01T00:22:02;10.55;;;9.45;;
14486;SDS011;7329;50.866;4.366;2022-12-01T00:24:04;11.00;;;9.55;;
14486;SDS011;7329;50.866;4.366;2022-12-01T00:26:08;11.50;;;9.57;;
14486;SDS011;7329;50.866;4.366;2022-12-01T00:28:10;11.02;;;9.85;;
14486;SDS011;7329;50.866;4.366;2022-12-01T00:30:14;10.73;;;9.63;;
14486;SDS011;7329;50.866;4.366;2022-12-01T00:32:17;12.90;;;10.20;;
14486;SDS011;7329;50.866;4.366;2022-12-01T00:34:20;10.82;;;9.68;;
14486;SDS011;7329;50.866;4.366;2022-12-01T00:36:24;12.30;;;10.15;;
14486;SDS011;7329;50.866;4.366;2022-12-01T00:38:26;11.27;;;9.77;;
14486;SDS011;7329;50.866;4.366;2022-12-01T00:40:28;11.88;;;10.00;;
14486;SDS011;7329;50.866;4.366;2022-12-01T00:42:31;11.27;;;9.65;;
14486;SDS011;7329;50.866;4.366;2022-12-01T00:44:33;10.23;;;9.23;;
14486;SDS011;7329;50.866;4.366;2022-12-01T00:46:37;9.93;;;8.93;;
14486;SDS011;7329;50.866;4.366;2022-12-01T00:48:39;10.02;;;8.82;;
14486;SDS011;7329;50.866;4.366;2022-12-01T00:50:42;10.48;;;9.40;;
14486;SDS011;7329;50.866;4.366;2022-12-01T00:52:44;10.13;;;9.02;;
14486;SDS011;7329;50.866;4.366;2022-12-01T00:54:47;10.73;;;9.60;;
14486;SDS011;7329;50.866;4.366;2022-12-01T00:56:49;10.20;;;9.20;;
14486;SDS011;7329;50.866;4.366;2022-12-01T00:58:51;10.35;;;9.25;;
14486;SDS011;7329;50.866;4.366;2022-12-01T01:00:56;10.73;;;9.63;;
14486;SDS011;7329;50.866;4.366;2022-12-01T01:03:01;11.32;;;9.52;;
14486;SDS011;7329;50.866;4.366;2022-12-01T01:05:04;10.57;;;9.40;;
14486;SDS011;7329;50.866;4.366;2022-12-01T01:07:07;11.27;;;9.70;;
14486;SDS011;7329;50.866;4.366;2022-12-01T01:09:09;10.50;;;9.40;;
14486;SDS011;7329;50.866;4.366;2022-12-01T01:11:12;9.80;;;8.80;;
14486;SDS011;7329;50.866;4.366;2022-12-01T01:13:15;10.40;;;9.18;;
14486;SDS011;7329;50.866;4.366;2022-12-01T01:15:17;11.65;;;9.30;;
14486;SDS011;7329;50.866;4.366;2022-12-01T01:17:20;10.45;;;9.35;;
14486;SDS011;7329;50.866;4.366;2022-12-01T01:19:24;10.70;;;9.60;;
14486;SDS011;7329;50.866;4.366;2022-12-01T01:21:26;9.50;;;8.60;;
14486;SDS011;7329;50.866;4.366;2022-12-01T01:23:28;11.23;;;9.32;;
14486;SDS011;7329;50.866;4.366;2022-12-01T01:25:31;11.07;;;9.85;;
14486;SDS011;7329;50.866;4.366;2022-12-01T01:27:34;10.02;;;8.98;;
14486;SDS011;7329;50.866;4.366;2022-12-01T01:29:36;9.65;;;8.65;;
14486;SDS011;7329;50.866;4.366;2022-12-01T01:31:38;9.85;;;8.85;;
14486;SDS011;7329;50.866;4.366;2022-12-01T01:33:41;9.32;;;8.43;;
14486;SDS011;7329;50.866;4.366;2022-12-01T01:35:45;10.13;;;8.48;;
14486;SDS011;7329;50.866;4.366;2022-12-01T01:37:47;9.70;;;8.70;;
14486;SDS011;7329;50.866;4.366;2022-12-01T01:39:51;10.15;;;8.60;;
14486;SDS011;7329;50.866;4.366;2022-12-01T01:41:53;10.30;;;9.20;;
14486;SDS011;7329;50.866;4.366;2022-12-01T01:43:57;10.00;;;8.48;;
14486;SDS011;7329;50.866;4.366;2022-12-01T01:46:01;9.50;;;8.48;;
14486;SDS011;7329;50.866;4.366;2022-12-01T01:48:03;9.48;;;8.50;;
14486;SDS011;7329;50.866;4.366;2022-12-01T01:50:08;9.98;;;8.75;;
14486;SDS011;7329;50.866;4.366;2022-12-01T01:52:14;9.80;;;8.80;;
14486;SDS011;7329;50.866;4.366;2022-12-01T01:54:18;10.00;;;8.48;;
14486;SDS011;7329;50.866;4.366;2022-12-01T01:56:22;9.25;;;8.25;;
14486;SDS011;7329;50.866;4.366;2022-12-01T01:58:25;9.55;;;8.55;;
14486;SDS011;7329;50.866;4.366;2022-12-01T02:00:28;10.85;;;9.05;;
14486;SDS011;7329;50.866;4.366;2022-12-01T02:02:30;10.05;;;8.63;;
14486;SDS011;7329;50.866;4.366;2022-12-01T02:04:34;9.82;;;8.63;;
14486;SDS011;7329;50.866;4.366;2022-12-01T02:06:38;9.45;;;8.52;;
14486;SDS011;7329;50.866;4.366;2022-12-01T02:08:42;9.25;;;8.25;;
14486;SDS011;7329;50.866;4.366;2022-12-01T02:10:48;9.23;;;8.27;;
14486;SDS011;7329;50.866;4.366;2022-12-01T02:13:07;8.63;;;7.72;;
14486;SDS011;7329;50.866;4.366;2022-12-01T02:15:20;9.55;;;8.55;;
14486;SDS011;7329;50.866;4.366;2022-12-01T02:17:29;8.70;;;7.82;;
14486;SDS011;7329;50.866;4.366;2022-12-01T02:19:43;9.32;;;8.43;;
14486;SDS011;7329;50.866;4.366;2022-12-01T02:21:58;9.13;;;8.23;;
14486;SDS011;7329;50.866;4.366;2022-12-01T02:26:51;9.65;;;8.48;;
14486;SDS011;7329;50.866;4.366;2022-12-01T02:31:38;9.73;;;8.75;;
14486;SDS011;7329;50.866;4.366;2022-12-01T02:33:46;9.10;;;8.23;;
14486;SDS011;7329;50.866;4.366;2022-12-01T02:35:54;9.25;;;7.88;;
14486;SDS011;7329;50.866;4.366;2022-12-01T02:38:07;9.40;;;8.45;;
14486;SDS011;7329;50.866;4.366;2022-12-01T02:40:16;9.60;;;8.57;;
14486;SDS011;7329;50.866;4.366;2022-12-01T02:42:23;9.43;;;8.43;;
14486;SDS011;7329;50.866;4.366;2022-12-01T02:44:53;9.20;;;8.18;;
14486;SDS011;7329;50.866;4.366;2022-12-01T02:46:59;9.88;;;8.82;;
14486;SDS011;7329;50.866;4.366;2022-12-01T02:49:06;9.15;;;8.25;;
14486;SDS011;7329;50.866;4.366;2022-12-01T02:51:13;9.57;;;8.57;;
14486;SDS011;7329;50.866;4.366;2022-12-01T02:53:19;8.82;;;7.93;;
14486;SDS011;7329;50.866;4.366;2022-12-01T02:55:22;9.60;;;8.70;;
14486;SDS011;7329;50.866;4.366;2022-12-01T02:57:24;9.50;;;8.50;;
14486;SDS011;7329;50.866;4.366;2022-12-01T02:59:26;10.00;;;9.00;;
14486;SDS011;7329;50.866;4.366;2022-12-01T03:01:35;9.25;;;8.30;;
14486;SDS011;7329;50.866;4.366;2022-12-01T03:03:55;9.30;;;8.30;;
14486;SDS011;7329;50.866;4.366;2022-12-01T03:06:18;8.88;;;7.97;;
14486;SDS011;7329;50.866;4.366;2022-12-01T03:08:30;9.75;;;8.75;;
14486;SDS011;7329;50.866;4.366;2022-12-01T03:10:38;10.02;;;8.90;;
14486;SDS011;7329;50.866;4.366;2022-12-01T03:12:49;9.43;;;8.43;;
14486;SDS011;7329;50.866;4.366;2022-12-01T03:15:02;9.55;;;8.55;;
14486;SDS011;7329;50.866;4.366;2022-12-01T03:17:11;9.23;;;8.32;;
14486;SDS011;7329;50.866;4.366;2022-12-01T03:19:20;9.18;;;8.20;;
14486;SDS011;7329;50.866;4.366;2022-12-01T03:21:30;9.43;;;8.43;;
14486;SDS011;7329;50.866;4.366;2022-12-01T03:23:36;9.68;;;8.68;;
14486;SDS011;7329;50.866;4.366;2022-12-01T03:25:43;9.75;;;8.70;;
14486;SDS011;7329;50.866;4.366;2022-12-01T03:27:49;10.18;;;9.10;;
14486;SDS011;7329;50.866;4.366;2022-12-01T03:29:56;10.27;;;9.15;;
14486;SDS011;7329;50.866;4.366;2022-12-01T03:32:02;9.05;;;8.15;;
14486;SDS011;7329;50.866;4.366;2022-12-01T03:34:09;9.70;;;8.70;;
14486;SDS011;7329;50.866;4.366;2022-12-01T03:36:19;9.55;;;8.57;;
14486;SDS011;7329;50.866;4.366;2022-12-01T03:38:26;9.80;;;8.57;;
14486;SDS011;7329;50.866;4.366;2022-12-01T03:40:30;10.07;;;8.70;;
14486;SDS011;7329;50.866;4.366;2022-12-01T03:42:36;11.43;;;9.15;;
14486;SDS011;7329;50.866;4.366;2022-12-01T03:44:43;9.20;;;8.32;;
14486;SDS011;7329;50.866;4.366;2022-12-01T03:46:48;9.90;;;8.90;;
14486;SDS011;7329;50.866;4.366;2022-12-01T03:48:55;10.68;;;9.57;;
14486;SDS011;7329;50.866;4.366;2022-12-01T03:51:01;9.95;;;8.95;;
14486;SDS011;7329;50.866;4.366;2022-12-01T03:53:09;9.63;;;8.68;;
14486;SDS011;7329;50.866;4.366;2022-12-01T03:55:19;9.93;;;8.90;;
14486;SDS011;7329;50.866;4.366;2022-12-01T03:57:26;9.75;;;8.75;;
14486;SDS011;7329;50.866;4.366;2022-12-01T03:59:34;11.73;;;8.95;;
14486;SDS011;7329;50.866;4.366;2022-12-01T04:01:39;10.45;;;9.38;;
14486;SDS011;7329;50.866;4.366;2022-12-01T04:03:41;10.02;;;9.02;;
14486;SDS011;7329;50.866;4.366;2022-12-01T04:05:47;10.82;;;8.93;;
14486;SDS011;7329;50.866;4.366;2022-12-01T04:07:49;10.40;;;9.30;;
14486;SDS011;7329;50.866;4.366;2022-12-01T04:09:53;9.85;;;8.95;;
14486;SDS011;7329;50.866;4.366;2022-12-01T04:11:55;10.10;;;9.02;;
14486;SDS011;7329;50.866;4.366;2022-12-01T04:14:15;10.15;;;9.13;;
14486;SDS011;7329;50.866;4.366;2022-12-01T04:16:18;9.85;;;8.85;;
14486;SDS011;7329;50.866;4.366;2022-12-01T04:18:20;8.93;;;8.13;;
14486;SDS011;7329;50.866;4.366;2022-12-01T04:20:22;10.60;;;9.48;;
14486;SDS011;7329;50.866;4.366;2022-12-01T04:22:25;10.00;;;9.00;;
14486;SDS011;7329;50.866;4.366;2022-12-01T04:24:27;11.13;;;9.98;;
14486;SDS011;7329;50.866;4.366;2022-12-01T04:26:32;10.35;;;9.35;;
14486;SDS011;7329;50.866;4.366;2022-12-01T04:28:36;9.68;;;8.77;;
14486;SDS011;7329;50.866;4.366;2022-12-01T04:30:38;10.05;;;9.00;;
14486;SDS011;7329;50.866;4.366;2022-12-01T04:32:41;10.52;;;9.43;;
14486;SDS011;7329;50.866;4.366;2022-12-01T04:34:44;10.07;;;9.07;;
14486;SDS011;7329;50.866;4.366;2022-12-01T04:36:46;10.65;;;9.57;;
14486;SDS011;7329;50.866;4.366;2022-12-01T04:38:48;11.13;;;9.32;;
14486;SDS011;7329;50.866;4.366;2022-12-01T04:40:51;9.43;;;8.52;;
14486;SDS011;7329;50.866;4.366;2022-12-01T04:42:55;11.07;;;9.30;;
14486;SDS011;7329;50.866;4.366;2022-12-01T04:44:57;10.05;;;9.05;;
14486;SDS011;7329;50.866;4.366;2022-12-01T04:47:00;11.23;;;9.57;;
14486;SDS011;7329;50.866;4.366;2022-12-01T04:49:02;10.98;;;9.88;;
14486;SDS011;7329;50.866;4.366;2022-12-01T04:51:06;10.18;;;9.18;;
14486;SDS011;7329;50.866;4.366;2022-12-01T04:53:09;11.15;;;10.05;;
14486;SDS011;7329;50.866;4.366;2022-12-01T04:55:11;10.82;;;9.82;;
14486;SDS011;7329;50.866;4.366;2022-12-01T04:57:15;10.57;;;9.45;;
14486;SDS011;7329;50.866;4.366;2022-12-01T04:59:18;9.98;;;8.98;;
14486;SDS011;7329;50.866;4.366;2022-12-01T05:01:21;10.57;;;9.48;;
14486;SDS011;7329;50.866;4.366;2022-12-01T05:03:23;10.45;;;9.35;;
14486;SDS011;7329;50.866;4.366;2022-12-01T05:05:25;10.40;;;8.85;;
14486;SDS011;7329;50.866;4.366;2022-12-01T05:07:28;10.93;;;9.82;;
14486;SDS011;7329;50.866;4.366;2022-12-01T05:09:30;9.40;;;8.50;;
14486;SDS011;7329;50.866;4.366;2022-12-01T05:11:32;9.77;;;8.75;;
14486;SDS011;7329;50.866;4.366;2022-12-01T05:13:35;10.75;;;9.65;;
14486;SDS011;7329;50.866;4.366;2022-12-01T05:15:40;9.70;;;8.70;;
14486;SDS011;7329;50.866;4.366;2022-12-01T05:17:42;9.88;;;8.88;;
14486;SDS011;7329;50.866;4.366;2022-12-01T05:19:45;10.25;;;9.15;;
14486;SDS011;7329;50.866;4.366;2022-12-01T05:22:05;10.30;;;9.30;;
14486;SDS011;7329;50.866;4.366;2022-12-01T05:24:07;9.68;;;8.68;;
14486;SDS011;7329;50.866;4.366;2022-12-01T05:26:11;9.40;;;8.50;;
14486;SDS011;7329;50.866;4.366;2022-12-01T05:28:14;10.20;;;9.20;;
14486;SDS011;7329;50.866;4.366;2022-12-01T05:30:16;10.10;;;9.10;;
14486;SDS011;7329;50.866;4.366;2022-12-01T05:32:20;10.98;;;9.77;;
14486;SDS011;7329;50.866;4.366;2022-12-01T05:34:22;10.25;;;9.25;;
14486;SDS011;7329;50.866;4.366;2022-12-01T05:36:24;9.65;;;8.73;;
14486;SDS011;7329;50.866;4.366;2022-12-01T05:38:27;9.30;;;8.27;;
14486;SDS011;7329;50.866;4.366;2022-12-01T05:40:29;10.40;;;8.88;;
14486;SDS011;7329;50.866;4.366;2022-12-01T05:42:31;10.52;;;9.38;;
14486;SDS011;7329;50.866;4.366;2022-12-01T05:44:34;10.35;;;9.25;;
14486;SDS011;7329;50.866;4.366;2022-12-01T05:46:36;10.18;;;9.18;;
14486;SDS011;7329;50.866;4.366;2022-12-01T05:48:40;10.23;;;9.05;;
14486;SDS011;7329;50.866;4.366;2022-12-01T05:50:43;11.70;;;9.25;;
14486;SDS011;7329;50.866;4.366;2022-12-01T05:52:45;10.13;;;9.13;;
14486;SDS011;7329;50.866;4.366;2022-12-01T05:54:47;10.27;;;9.23;;
14486;SDS011;7329;50.866;4.366;2022-12-01T05:56:50;11.05;;;9.95;;
14486;SDS011;7329;50.866;4.366;2022-12-01T05:58:52;9.98;;;8.98;;
14486;SDS011;7329;50.866;4.366;2022-12-01T06:00:54;10.85;;;9.38;;
14486;SDS011;7329;50.866;4.366;2022-12-01T06:02:57;12.10;;;9.48;;
14486;SDS011;7329;50.866;4.366;2022-12-01T06:05:00;9.80;;;8.65;;
14486;SDS011;7329;50.866;4.366;2022-12-01T06:07:03;10.43;;;9.27;;
14486;SDS011;7329;50.866;4.366;2022-12-01T06:09:05;10.80;;;9.40;;
14486;SDS011;7329;50.866;4.366;2022-12-01T06:11:08;10.00;;;8.93;;
14486;SDS011;7329;50.866;4.366;2022-12-01T06:13:11;10.05;;;9.05;;
14486;SDS011;7329;50.866;4.366;2022-12-01T06:15:13;11.18;;;9.30;;
14486;SDS011;7329;50.866;4.366;2022-12-01T06:17:16;8.95;;;8.05;;
14486;SDS011;7329;50.866;4.366;2022-12-01T06:19:18;9.88;;;8.88;;
14486;SDS011;7329;50.866;4.366;2022-12-01T06:21:22;8.93;;;8.05;;
14486;SDS011;7329;50.866;4.366;2022-12-01T06:23:24;9.77;;;8.80;;
14486;SDS011;7329;50.866;4.366;2022-12-01T06:25:26;10.30;;;8.88;;
14486;SDS011;7329;50.866;4.366;2022-12-01T06:27:29;10.43;;;9.32;;
14486;SDS011;7329;50.866;4.366;2022-12-01T06:29:31;10.15;;;8.52;;
14486;SDS011;7329;50.866;4.366;2022-12-01T06:31:34;10.13;;;9.13;;
14486;SDS011;7329;50.866;4.366;2022-12-01T06:33:36;10.88;;;8.82;;
14486;SDS011;7329;50.866;4.366;2022-12-01T06:35:38;9.75;;;8.75;;
14486;SDS011;7329;50.866;4.366;2022-12-01T06:37:42;9.43;;;8.43;;
14486;SDS011;7329;50.866;4.366;2022-12-01T06:39:44;8.63;;;7.72;;
14486;SDS011;7329;50.866;4.366;2022-12-01T06:41:46;9.75;;;8.77;;
14486;SDS011;7329;50.866;4.366;2022-12-01T06:43:49;9.57;;;8.50;;
14486;SDS011;7329;50.866;4.366;2022-12-01T06:45:51;9.95;;;8.95;;
14486;SDS011;7329;50.866;4.366;2022-12-01T06:47:53;10.55;;;8.45;;
14486;SDS011;7329;50.866;4.366;2022-12-01T06:49:56;9.50;;;8.23;;
14486;SDS011;7329;50.866;4.366;2022-12-01T06:51:59;9.00;;;7.95;;
14486;SDS011;7329;50.866;4.366;2022-12-01T06:54:02;8.77;;;7.88;;
14486;SDS011;7329;50.866;4.366;2022-12-01T06:56:05;10.32;;;8.90;;
14486;SDS011;7329;50.866;4.366;2022-12-01T06:58:08;8.90;;;8.00;;
14486;SDS011;7329;50.866;4.366;2022-12-01T07:00:10;10.60;;;8.65;;
14486;SDS011;7329;50.866;4.366;2022-12-01T07:02:14;10.93;;;8.48;;
14486;SDS011;7329;50.866;4.366;2022-12-01T07:04:16;9.48;;;8.48;;
14486;SDS011;7329;50.866;4.366;2022-12-01T07:06:18;11.02;;;8.90;;
14486;SDS011;7329;50.866;4.366;2022-12-01T07:08:20;9.68;;;8.57;;
14486;SDS011;7329;50.866;4.366;2022-12-01T07:10:24;8.63;;;7.82;;
14486;SDS011;7329;50.866;4.366;2022-12-01T07:12:28;9.60;;;8.23;;
14486;SDS011;7329;50.866;4.366;2022-12-01T07:14:31;9.75;;;8.20;;
14486;SDS011;7329;50.866;4.366;2022-12-01T07:16:33;9.55;;;8.40;;
14486;SDS011;7329;50.866;4.366;2022-12-01T07:18:35;9.07;;;8.07;;
14486;SDS011;7329;50.866;4.366;2022-12-01T07:20:39;9.07;;;8.15;;
14486;SDS011;7329;50.866;4.366;2022-12-01T07:22:42;10.52;;;8.00;;
14486;SDS011;7329;50.866;4.366;2022-12-01T07:24:44;10.50;;;8.63;;
14486;SDS011;7329;50.866;4.366;2022-12-01T07:26:48;10.13;;;8.82;;
14486;SDS011;7329;50.866;4.366;2022-12-01T07:28:50;9.95;;;8.93;;
14486;SDS011;7329;50.866;4.366;2022-12-01T07:30:58;9.60;;;8.60;;
14486;SDS011;7329;50.866;4.366;2022-12-01T07:33:02;9.75;;;8.55;;
14486;SDS011;7329;50.866;4.366;2022-12-01T07:35:04;9.45;;;8.45;;
14486;SDS011;7329;50.866;4.366;2022-12-01T07:37:07;9.80;;;8.45;;
14486;SDS011;7329;50.866;4.366;2022-12-01T07:39:09;10.20;;;8.48;;
14486;SDS011;7329;50.866;4.366;2022-12-01T07:41:12;11.38;;;8.18;;
14486;SDS011;7329;50.866;4.366;2022-12-01T07:43:19;9.63;;;8.52;;
14486;SDS011;7329;50.866;4.366;2022-12-01T07:45:22;8.93;;;8.02;;
14486;SDS011;7329;50.866;4.366;2022-12-01T07:47:24;10.27;;;8.73;;
14486;SDS011;7329;50.866;4.366;2022-12-01T07:49:26;9.90;;;8.55;;
14486;SDS011;7329;50.866;4.366;2022-12-01T07:51:29;10.80;;;8.55;;
14486;SDS011;7329;50.866;4.366;2022-12-01T07:53:31;10.38;;;8.48;;
14486;SDS011;7329;50.866;4.366;2022-12-01T07:55:33;9.35;;;8.43;;
14486;SDS011;7329;50.866;4.366;2022-12-01T07:57:37;19.23;;;8.95;;
14486;SDS011;7329;50.866;4.366;2022-12-01T07:59:40;14.18;;;9.18;;
14486;SDS011;7329;50.866;4.366;2022-12-01T08:01:43;11.70;;;8.25;;
14486;SDS011;7329;50.866;4.366;2022-12-01T08:03:46;11.70;;;8.10;;
14486;SDS011;7329;50.866;4.366;2022-12-01T08:05:54;11.02;;;8.35;;
14486;SDS011;7329;50.866;4.366;2022-12-01T08:07:57;12.25;;;9.10;;
14486;SDS011;7329;50.866;4.366;2022-12-01T08:10:00;10.20;;;8.38;;
14486;SDS011;7329;50.866;4.366;2022-12-01T08:12:02;9.52;;;7.57;;
14486;SDS011;7329;50.866;4.366;2022-12-01T08:14:05;11.40;;;8.40;;
14486;SDS011;7329;50.866;4.366;2022-12-01T08:16:09;10.48;;;8.18;;
14486;SDS011;7329;50.866;4.366;2022-12-01T08:18:14;12.73;;;8.07;;
14486;SDS011;7329;50.866;4.366;2022-12-01T08:20:16;12.43;;;8.63;;
14486;SDS011;7329;50.866;4.366;2022-12-01T08:22:21;11.82;;;8.35;;
14486;SDS011;7329;50.866;4.366;2022-12-01T08:24:23;10.38;;;8.25;;
14486;SDS011;7329;50.866;4.366;2022-12-01T08:26:26;10.35;;;7.72;;
14486;SDS011;7329;50.866;4.366;2022-12-01T08:28:28;9.13;;;8.13;;
14486;SDS011;7329;50.866;4.366;2022-12-01T08:30:31;9.73;;;8.73;;
14486;SDS011;7329;50.866;4.366;2022-12-01T08:32:34;10.10;;;8.15;;
14486;SDS011;7329;50.866;4.366;2022-12-01T08:34:37;15.15;;;9.60;;
14486;SDS011;7329;50.866;4.366;2022-12-01T08:36:40;10.45;;;8.95;;
14486;SDS011;7329;50.866;4.366;2022-12-01T08:38:43;11.70;;;8.40;;
14486;SDS011;7329;50.866;4.366;2022-12-01T08:40:45;11.35;;;8.85;;
14486;SDS011;7329;50.866;4.366;2022-12-01T08:42:48;11.95;;;8.93;;
14486;SDS011;7329;50.866;4.366;2022-12-01T08:44:53;12.30;;;9.38;;
14486;SDS011;7329;50.866;4.366;2022-12-01T08:46:55;10.35;;;8.82;;
14486;SDS011;7329;50.866;4.366;2022-12-01T08:48:59;9.50;;;8.02;;
14486;SDS011;7329;50.866;4.366;2022-12-01T08:51:02;10.73;;;8.45;;
14486;SDS011;7329;50.866;4.366;2022-12-01T08:53:06;10.60;;;8.75;;
14486;SDS011;7329;50.866;4.366;2022-12-01T08:55:08;11.95;;;8.10;;
14486;SDS011;7329;50.866;4.366;2022-12-01T08:57:11;9.30;;;8.30;;
14486;SDS011;7329;50.866;4.366;2022-12-01T08:59:13;10.90;;;8.63;;
14486;SDS011;7329;50.866;4.366;2022-12-01T09:01:16;14.10;;;8.07;;
14486;SDS011;7329;50.866;4.366;2022-12-01T09:03:22;10.93;;;8.27;;
14486;SDS011;7329;50.866;4.366;2022-12-01T09:05:25;11.05;;;8.30;;
14486;SDS011;7329;50.866;4.366;2022-12-01T09:07:28;13.68;;;8.70;;
14486;SDS011;7329;50.866;4.366;2022-12-01T09:09:30;11.55;;;8.50;;
14486;SDS011;7329;50.866;4.366;2022-12-01T09:11:35;10.85;;;8.60;;
14486;SDS011;7329;50.866;4.366;2022-12-01T09:13:38;9.15;;;7.78;;
14486;SDS011;7329;50.866;4.366;2022-12-01T09:15:41;12.73;;;8.02;;
14486;SDS011;7329;50.866;4.366;2022-12-01T09:17:43;10.30;;;8.43;;
14486;SDS011;7329;50.866;4.366;2022-12-01T09:19:46;12.95;;;8.13;;
14486;SDS011;7329;50.866;4.366;2022-12-01T09:21:50;10.90;;;8.30;;
14486;SDS011;7329;50.866;4.366;2022-12-01T09:23:53;11.52;;;7.75;;
14486;SDS011;7329;50.866;4.366;2022-12-01T09:25:55;13.15;;;8.93;;
14486;SDS011;7329;50.866;4.366;2022-12-01T09:28:01;11.60;;;8.43;;
14486;SDS011;7329;50.866;4.366;2022-12-01T09:30:04;12.75;;;8.25;;
14486;SDS011;7329;50.866;4.366;2022-12-01T09:32:07;11.23;;;8.43;;
14486;SDS011;7329;50.866;4.366;2022-12-01T09:34:10;10.50;;;7.47;;
14486;SDS011;7329;50.866;4.366;2022-12-01T09:36:14;9.65;;;8.18;;
14486;SDS011;7329;50.866;4.366;2022-12-01T09:38:17;17.60;;;9.23;;
14486;SDS011;7329;50.866;4.366;2022-12-01T09:40:28;9.18;;;7.72;;
14486;SDS011;7329;50.866;4.366;2022-12-01T09:42:37;10.55;;;8.30;;
14486;SDS011;7329;50.866;4.366;2022-12-01T09:44:40;11.75;;;8.27;;
14486;SDS011;7329;50.866;4.366;2022-12-01T09:46:48;9.90;;;7.97;;
14486;SDS011;7329;50.866;4.366;2022-12-01T09:48:53;9.40;;;7.88;;
14486;SDS011;7329;50.866;4.366;2022-12-01T09:51:02;9.35;;;8.35;;
14486;SDS011;7329;50.866;4.366;2022-12-01T09:53:05;11.63;;;8.27;;
14486;SDS011;7329;50.866;4.366;2022-12-01T09:55:12;11.63;;;7.93;;
14486;SDS011;7329;50.866;4.366;2022-12-01T09:57:27;10.57;;;8.05;;
14486;SDS011;7329;50.866;4.366;2022-12-01T09:59:32;11.43;;;8.30;;
14486;SDS011;7329;50.866;4.366;2022-12-01T10:01:41;10.32;;;8.18;;
14486;SDS011;7329;50.866;4.366;2022-12-01T10:03:46;10.30;;;7.85;;
14486;SDS011;7329;50.866;4.366;2022-12-01T10:05:54;10.55;;;8.10;;
14486;SDS011;7329;50.866;4.366;2022-12-01T10:08:00;10.93;;;8.00;;
14486;SDS011;7329;50.866;4.366;2022-12-01T10:10:10;11.82;;;8.15;;
14486;SDS011;7329;50.866;4.366;2022-12-01T10:12:18;9.93;;;7.65;;
14486;SDS011;7329;50.866;4.366;2022-12-01T10:14:23;10.15;;;7.72;;
14486;SDS011;7329;50.866;4.366;2022-12-01T10:16:31;11.20;;;7.80;;
14486;SDS011;7329;50.866;4.366;2022-12-01T10:18:47;9.13;;;7.30;;
14486;SDS011;7329;50.866;4.366;2022-12-01T10:20:54;13.48;;;7.72;;
14486;SDS011;7329;50.866;4.366;2022-12-01T10:23:12;9.13;;;7.30;;
14486;SDS011;7329;50.866;4.366;2022-12-01T10:25:23;8.93;;;7.38;;
14486;SDS011;7329;50.866;4.366;2022-12-01T10:27:35;10.25;;;7.57;;
14486;SDS011;7329;50.866;4.366;2022-12-01T10:29:46;12.25;;;7.85;;
14486;SDS011;7329;50.866;4.366;2022-12-01T10:31:51;8.40;;;7.25;;
14486;SDS011;7329;50.866;4.366;2022-12-01T10:33:59;12.30;;;8.13;;
14486;SDS011;7329;50.866;4.366;2022-12-01T10:36:03;9.60;;;7.13;;
14486;SDS011;7329;50.866;4.366;2022-12-01T10:38:11;8.38;;;7.20;;
14486;SDS011;7329;50.866;4.366;2022-12-01T10:40:16;9.02;;;7.20;;
14486;SDS011;7329;50.866;4.366;2022-12-01T10:42:23;9.10;;;7.43;;
14486;SDS011;7329;50.866;4.366;2022-12-01T10:44:29;8.30;;;6.85;;
14486;SDS011;7329;50.866;4.366;2022-12-01T10:46:33;10.25;;;7.50;;
14486;SDS011;7329;50.866;4.366;2022-12-01T10:48:50;8.43;;;7.43;;
14486;SDS011;7329;50.866;4.366;2022-12-01T10:50:55;11.73;;;8.23;;
14486;SDS011;7329;50.866;4.366;2022-12-01T10:53:28;9.68;;;7.63;;
14486;SDS011;7329;50.866;4.366;2022-12-01T10:55:34;9.68;;;7.80;;
14486;SDS011;7329;50.866;4.366;2022-12-01T10:57:40;9.02;;;7.55;;
14486;SDS011;7329;50.866;4.366;2022-12-01T10:59:50;9.00;;;7.35;;
14486;SDS011;7329;50.866;4.366;2022-12-01T11:01:55;11.63;;;7.93;;
14486;SDS011;7329;50.866;4.366;2022-12-01T11:04:01;11.07;;;8.13;;
14486;SDS011;7329;50.866;4.366;2022-12-01T11:06:07;8.68;;;7.53;;
14486;SDS011;7329;50.866;4.366;2022-12-01T11:08:19;12.43;;;8.02;;
14486;SDS011;7329;50.866;4.366;2022-12-01T11:10:25;9.10;;;7.43;;
14486;SDS011;7329;50.866;4.366;2022-12-01T11:12:30;9.85;;;7.90;;
14486;SDS011;7329;50.866;4.366;2022-12-01T11:14:35;8.95;;;7.30;;
14486;SDS011;7329;50.866;4.366;2022-12-01T11:16:46;10.75;;;7.55;;
14486;SDS011;7329;50.866;4.366;2022-12-01T11:18:49;9.05;;;7.60;;
14486;SDS011;7329;50.866;4.366;2022-12-01T11:21:11;10.10;;;8.25;;
14486;SDS011;7329;50.866;4.366;2022-12-01T11:23:24;10.02;;;7.22;;
14486;SDS011;7329;50.866;4.366;2022-12-01T11:25:27;11.40;;;7.55;;
14486;SDS011;7329;50.866;4.366;2022-12-01T11:27:31;10.45;;;7.35;;
14486;SDS011;7329;50.866;4.366;2022-12-01T11:29:37;10.43;;;7.85;;
14486;SDS011;7329;50.866;4.366;2022-12-01T11:31:41;8.45;;;7.15;;
14486;SDS011;7329;50.866;4.366;2022-12-01T11:33:48;9.95;;;7.72;;
14486;SDS011;7329;50.866;4.366;2022-12-01T11:35:57;9.95;;;6.95;;
14486;SDS011;7329;50.866;4.366;2022-12-01T11:38:00;8.15;;;7.22;;
14486;SDS011;7329;50.866;4.366;2022-12-01T11:40:05;8.00;;;6.70;;
14486;SDS011;7329;50.866;4.366;2022-12-01T11:42:17;8.88;;;6.97;;
14486;SDS011;7329;50.866;4.366;2022-12-01T11:44:25;9.32;;;6.60;;
14486;SDS011;7329;50.866;4.366;2022-12-01T11:46:32;8.38;;;6.93;;
14486;SDS011;7329;50.866;4.366;2022-12-01T11:48:42;10.50;;;7.35;;
14486;SDS011;7329;50.866;4.366;2022-12-01T11:51:03;11.05;;;7.35;;
14486;SDS011;7329;50.866;4.366;2022-12-01T11:53:30;7.68;;;6.85;;
14486;SDS011;7329;50.866;4.366;2022-12-01T11:55:33;9.18;;;7.40;;
14486;SDS011;7329;50.866;4.366;2022-12-01T11:57:36;10.68;;;7.15;;
14486;SDS011;7329;50.866;4.366;2022-12-01T11:59:44;8.43;;;7.13;;
14486;SDS011;7329;50.866;4.366;2022-12-01T12:04:21;8.57;;;6.82;;
14486;SDS011;7329;50.866;4.366;2022-12-01T12:06:33;9.57;;;7.28;;
14486;SDS011;7329;50.866;4.366;2022-12-01T12:08:46;8.05;;;7.10;;
14486;SDS011;7329;50.866;4.366;2022-12-01T12:11:01;12.02;;;6.78;;
14486;SDS011;7329;50.866;4.366;2022-12-01T12:13:21;10.45;;;7.63;;
14486;SDS011;7329;50.866;4.366;2022-12-01T12:15:44;10.60;;;7.05;;
14486;SDS011;7329;50.866;4.366;2022-12-01T12:18:01;9.30;;;7.70;;
14486;SDS011;7329;50.866;4.366;2022-12-01T12:20:19;9.35;;;7.60;;
14486;SDS011;7329;50.866;4.366;2022-12-01T12:22:33;8.77;;;6.93;;
14486;SDS011;7329;50.866;4.366;2022-12-01T12:24:43;8.55;;;7.10;;
14486;SDS011;7329;50.866;4.366;2022-12-01T12:26:59;10.73;;;7.28;;
14486;SDS011;7329;50.866;4.366;2022-12-01T12:29:15;9.65;;;6.82;;
14486;SDS011;7329;50.866;4.366;2022-12-01T12:31:27;9.60;;;7.00;;
14486;SDS011;7329;50.866;4.366;2022-12-01T12:36:24;7.22;;;6.40;;
14486;SDS011;7329;50.866;4.366;2022-12-01T12:38:36;8.18;;;7.00;;
14486;SDS011;7329;50.866;4.366;2022-12-01T12:40:49;9.45;;;6.47;;
14486;SDS011;7329;50.866;4.366;2022-12-01T12:43:00;11.23;;;6.85;;
14486;SDS011;7329;50.866;4.366;2022-12-01T12:45:15;10.60;;;7.20;;
14486;SDS011;7329;50.866;4.366;2022-12-01T12:47:25;9.60;;;6.65;;
14486;SDS011;7329;50.866;4.366;2022-12-01T12:49:38;9.20;;;6.43;;
14486;SDS011;7329;50.866;4.366;2022-12-01T12:51:45;10.90;;;7.25;;